sensor_id;sensor_type;location;lat;lon;timestamp;pressure;altitude;pressure_sealevel;temperature;humidity
77227;BME280;66234;47.642;19.144;2024-03-23T00:54:02;99984.28;;;6.43;96.06
77227;BME280;66234;47.642;19.144;2024-03-23T00:57:04;99969.72;;;6.39;95.87
77227;BME280;66234;47.642;19.144;2024-03-23T01:00:06;99966.84;;;6.34;96.31
77227;BME280;66234;47.642;19.144;2024-03-23T01:03:08;99966.28;;;6.38;96.04
77227;BME280;66234;47.642;19.144;2024-03-23T01:06:10;99952.72;;;6.33;96.16
77227;BME280;66234;47.642;19.144;2024-03-23T01:09:11;99959.66;;;6.34;96.13
77227;BME280;66234;47.642;19.144;2024-03-23T01:12:13;99953.47;;;6.27;96.43
77227;BME280;66234;47.642;19.144;2024-03-23T01:15:14;99953.38;;;6.21;96.54
77227;BME280;66234;47.642;19.144;2024-03-23T01:18:16;99945.16;;;6.16;97.23
77227;BME280;66234;47.642;19.144;2024-03-23T01:21:17;99952.50;;;6.14;97.24
77227;BME280;66234;47.642;19.144;2024-03-23T01:24:19;99958.38;;;6.09;97.50
77227;BME280;66234;47.642;19.144;2024-03-23T01:27:23;99956.81;;;6.00;98.93
77227;BME280;66234;47.642;19.144;2024-03-23T01:30:25;99948.22;;;5.98;98.86
77227;BME280;66234;47.642;19.144;2024-03-23T01:33:26;99946.84;;;6.02;99.11
77227;BME280;66234;47.642;19.144;2024-03-23T01:36:28;99946.56;;;5.97;99.55
77227;BME280;66234;47.642;19.144;2024-03-23T01:39:29;99944.66;;;5.91;99.67
77227;BME280;66234;47.642;19.144;2024-03-23T01:42:31;99933.75;;;5.86;99.68
77227;BME280;66234;47.642;19.144;2024-03-23T01:45:32;99945.75;;;5.82;99.87
77227;BME280;66234;47.642;19.144;2024-03-23T01:48:34;99943.25;;;5.81;100.00
77227;BME280;66234;47.642;19.144;2024-03-23T01:51:36;99934.13;;;5.83;99.69
77227;BME280;66234;47.642;19.144;2024-03-23T01:54:38;99935.03;;;5.76;99.66
77227;BME280;66234;47.642;19.144;2024-03-23T01:57:40;99927.63;;;5.71;100.00
77227;BME280;66234;47.642;19.144;2024-03-23T02:00:42;99928.63;;;5.70;100.00
77227;BME280;66234;47.642;19.144;2024-03-23T02:03:44;99932.63;;;5.66;100.00
77227;BME280;66234;47.642;19.144;2024-03-23T02:06:45;99936.31;;;5.65;100.00
77227;BME280;66234;47.642;19.144;2024-03-23T02:09:47;99924.97;;;5.57;100.00
77227;BME280;66234;47.642;19.144;2024-03-23T02:12:48;99922.34;;;5.57;100.00
77227;BME280;66234;47.642;19.144;2024-03-23T02:15:50;99918.09;;;5.62;100.00
77227;BME280;66234;47.642;19.144;2024-03-23T02:18:51;99912.44;;;5.65;100.00
77227;BME280;66234;47.642;19.144;2024-03-23T02:21:53;99916.19;;;5.56;100.00
77227;BME280;66234;47.642;19.144;2024-03-23T02:24:55;99910.34;;;5.61;100.00
77227;BME280;66234;47.642;19.144;2024-03-23T02:27:57;99898.53;;;5.63;100.00
77227;BME280;66234;47.642;19.144;2024-03-23T02:30:59;99906.03;;;5.45;100.00
77227;BME280;66234;47.642;19.144;2024-03-23T02:34:02;99892.13;;;5.43;100.00
77227;BME280;66234;47.642;19.144;2024-03-23T02:37:10;99886.41;;;5.40;100.00
77227;BME280;66234;47.642;19.144;2024-03-23T02:40:12;99885.94;;;5.36;100.00
77227;BME280;66234;47.642;19.144;2024-03-23T02:43:13;99880.16;;;5.33;100.00
77227;BME280;66234;47.642;19.144;2024-03-23T02:46:15;99873.03;;;5.33;100.00
77227;BME280;66234;47.642;19.144;2024-03-23T02:49:16;99872.31;;;5.39;100.00
77227;BME280;66234;47.642;19.144;2024-03-23T02:52:18;99870.41;;;5.33;100.00
77227;BME280;66234;47.642;19.144;2024-03-23T02:55:20;99873.50;;;5.37;100.00
77227;BME280;66234;47.642;19.144;2024-03-23T02:58:22;99868.66;;;5.40;100.00
77227;BME280;66234;47.642;19.144;2024-03-23T03:01:23;99874.31;;;5.37;100.00
77227;BME280;66234;47.642;19.144;2024-03-23T03:04:25;99868.66;;;5.40;100.00
77227;BME280;66234;47.642;19.144;2024-03-23T03:07:26;99858.94;;;5.62;100.00
77227;BME280;66234;47.642;19.144;2024-03-23T03:10:28;99853.81;;;5.60;100.00
77227;BME280;66234;47.642;19.144;2024-03-23T03:13:30;99855.28;;;5.63;99.36
77227;BME280;66234;47.642;19.144;2024-03-23T03:16:31;99853.38;;;5.57;99.85
77227;BME280;66234;47.642;19.144;2024-03-23T03:19:33;99854.84;;;5.59;100.00
77227;BME280;66234;47.642;19.144;2024-03-23T03:22:35;99848.09;;;5.57;100.00
77227;BME280;66234;47.642;19.144;2024-03-23T03:25:36;99848.28;;;5.55;100.00
77227;BME280;66234;47.642;19.144;2024-03-23T03:28:38;99847.53;;;5.61;100.00
77227;BME280;66234;47.642;19.144;2024-03-23T03:31:39;99841.94;;;5.56;100.00
77227;BME280;66234;47.642;19.144;2024-03-23T03:34:41;99838.53;;;5.77;99.70
77227;BME280;66234;47.642;19.144;2024-03-23T03:37:42;99840.63;;;5.81;99.02
77227;BME280;66234;47.642;19.144;2024-03-23T03:40:44;99843.56;;;5.86;98.58
77227;BME280;66234;47.642;19.144;2024-03-23T03:43:46;99837.81;;;5.83;98.36
77227;BME280;66234;47.642;19.144;2024-03-23T03:46:48;99841.09;;;5.85;99.13
77227;BME280;66234;47.642;19.144;2024-03-23T03:49:50;99842.09;;;5.84;99.48
77227;BME280;66234;47.642;19.144;2024-03-23T03:52:52;99841.09;;;5.85;99.50
77227;BME280;66234;47.642;19.144;2024-03-23T03:55:53;99839.91;;;5.87;100.00
77227;BME280;66234;47.642;19.144;2024-03-23T03:58:54;99836.63;;;5.85;100.00
77227;BME280;66234;47.642;19.144;2024-03-23T04:01:56;99829.38;;;5.94;100.00
77227;BME280;66234;47.642;19.144;2024-03-23T04:04:57;99826.34;;;5.97;100.00
77227;BME280;66234;47.642;19.144;2024-03-23T04:07:59;99831.97;;;6.08;100.00
77227;BME280;66234;47.642;19.144;2024-03-23T04:11:01;99822.56;;;6.06;100.00
77227;BME280;66234;47.642;19.144;2024-03-23T04:14:02;99827.31;;;6.10;100.00
77227;BME280;66234;47.642;19.144;2024-03-23T04:17:04;99819.03;;;6.20;100.00
77227;BME280;66234;47.642;19.144;2024-03-23T04:20:06;99820.28;;;6.45;100.00
77227;BME280;66234;47.642;19.144;2024-03-23T04:23:12;99815.28;;;6.56;100.00
77227;BME280;66234;47.642;19.144;2024-03-23T04:26:14;99806.91;;;6.81;100.00
77227;BME280;66234;47.642;19.144;2024-03-23T04:29:16;99813.50;;;6.91;100.00
77227;BME280;66234;47.642;19.144;2024-03-23T04:32:18;99815.44;;;7.04;100.00
77227;BME280;66234;47.642;19.144;2024-03-23T04:35:21;99815.44;;;7.10;100.00
77227;BME280;66234;47.642;19.144;2024-03-23T04:38:26;99813.47;;;7.19;100.00
77227;BME280;66234;47.642;19.144;2024-03-23T04:41:30;99811.47;;;7.27;100.00
77227;BME280;66234;47.642;19.144;2024-03-23T04:44:32;99806.56;;;7.31;100.00
77227;BME280;66234;47.642;19.144;2024-03-23T04:47:34;99813.97;;;7.35;99.71
77227;BME280;66234;47.642;19.144;2024-03-23T04:50:38;99812.75;;;7.38;99.91
77227;BME280;66234;47.642;19.144;2024-03-23T04:53:39;99807.69;;;7.49;99.76
77227;BME280;66234;47.642;19.144;2024-03-23T04:56:41;99793.81;;;7.60;98.54
77227;BME280;66234;47.642;19.144;2024-03-23T04:59:43;99799.59;;;7.70;97.90
77227;BME280;66234;47.642;19.144;2024-03-23T05:02:44;99804.09;;;7.70;97.69
77227;BME280;66234;47.642;19.144;2024-03-23T05:05:47;99804.53;;;7.80;97.08
77227;BME280;66234;47.642;19.144;2024-03-23T05:08:49;99795.16;;;7.90;96.40
77227;BME280;66234;47.642;19.144;2024-03-23T05:11:51;99801.53;;;8.02;96.10
77227;BME280;66234;47.642;19.144;2024-03-23T05:14:52;99802.56;;;8.08;95.25
77227;BME280;66234;47.642;19.144;2024-03-23T05:17:54;99804.44;;;8.20;94.65
77227;BME280;66234;47.642;19.144;2024-03-23T05:20:58;99793.81;;;8.27;94.20
77227;BME280;66234;47.642;19.144;2024-03-23T05:24:00;99791.56;;;8.37;93.89
77227;BME280;66234;47.642;19.144;2024-03-23T05:27:02;99788.69;;;8.38;92.98
77227;BME280;66234;47.642;19.144;2024-03-23T05:30:04;99786.25;;;8.44;93.00
77227;BME280;66234;47.642;19.144;2024-03-23T05:33:07;99786.25;;;8.50;93.24
77227;BME280;66234;47.642;19.144;2024-03-23T05:36:09;99777.66;;;8.55;92.65
77227;BME280;66234;47.642;19.144;2024-03-23T05:39:14;99780.94;;;8.57;92.91
77227;BME280;66234;47.642;19.144;2024-03-23T05:42:18;99786.44;;;8.62;92.82
77227;BME280;66234;47.642;19.144;2024-03-23T05:45:19;99784.63;;;8.69;92.79
77227;BME280;66234;47.642;19.144;2024-03-23T05:48:22;99786.88;;;8.72;91.96
77227;BME280;66234;47.642;19.144;2024-03-23T05:51:23;99782.94;;;8.74;92.60
77227;BME280;66234;47.642;19.144;2024-03-23T05:54:25;99780.69;;;8.78;92.88
77227;BME280;66234;47.642;19.144;2024-03-23T05:57:27;99778.03;;;8.84;92.68
77227;BME280;66234;47.642;19.144;2024-03-23T06:00:28;99775.16;;;8.92;92.63
77227;BME280;66234;47.642;19.144;2024-03-23T06:03:30;99771.88;;;9.03;91.81
77227;BME280;66234;47.642;19.144;2024-03-23T06:06:31;99784.56;;;9.01;91.57
77227;BME280;66234;47.642;19.144;2024-03-23T06:09:33;99771.03;;;9.09;91.66
77227;BME280;66234;47.642;19.144;2024-03-23T06:12:34;99761.34;;;9.15;91.86
77227;BME280;66234;47.642;19.144;2024-03-23T06:15:36;99754.38;;;9.20;91.42
77227;BME280;66234;47.642;19.144;2024-03-23T06:18:39;99753.31;;;9.28;91.23
77227;BME280;66234;47.642;19.144;2024-03-23T06:21:44;99750.22;;;9.37;91.12
77227;BME280;66234;47.642;19.144;2024-03-23T06:24:46;99750.16;;;9.44;90.71
77227;BME280;66234;47.642;19.144;2024-03-23T06:27:47;99741.31;;;9.50;90.32
77227;BME280;66234;47.642;19.144;2024-03-23T06:30:49;99738.59;;;9.63;89.49
77227;BME280;66234;47.642;19.144;2024-03-23T06:33:50;99740.19;;;9.70;89.50
77227;BME280;66234;47.642;19.144;2024-03-23T06:36:52;99743.59;;;9.84;89.00
77227;BME280;66234;47.642;19.144;2024-03-23T06:39:53;99741.03;;;10.02;88.17
77227;BME280;66234;47.642;19.144;2024-03-23T06:42:55;99736.66;;;10.14;87.18
77227;BME280;66234;47.642;19.144;2024-03-23T06:45:56;99742.88;;;10.33;86.23
77227;BME280;66234;47.642;19.144;2024-03-23T06:48:58;99751.50;;;10.35;85.82
77227;BME280;66234;47.642;19.144;2024-03-23T06:52:00;99740.97;;;10.40;85.14
77227;BME280;66234;47.642;19.144;2024-03-23T06:55:01;99737.09;;;10.60;84.17
77227;BME280;66234;47.642;19.144;2024-03-23T06:58:05;99733.25;;;10.74;83.77
77227;BME280;66234;47.642;19.144;2024-03-23T07:01:07;99725.63;;;10.78;83.16
77227;BME280;66234;47.642;19.144;2024-03-23T07:04:09;99722.06;;;10.66;84.04
77227;BME280;66234;47.642;19.144;2024-03-23T07:07:11;99724.63;;;10.72;84.28
77227;BME280;66234;47.642;19.144;2024-03-23T07:10:13;99718.94;;;10.87;83.54
77227;BME280;66234;47.642;19.144;2024-03-23T07:13:14;99716.00;;;10.95;83.38
77227;BME280;66234;47.642;19.144;2024-03-23T07:16:16;99724.44;;;11.10;82.64
77227;BME280;66234;47.642;19.144;2024-03-23T07:19:18;99717.25;;;11.28;81.67
77227;BME280;66234;47.642;19.144;2024-03-23T07:22:20;99721.13;;;11.62;80.59
77227;BME280;66234;47.642;19.144;2024-03-23T07:25:21;99715.19;;;11.60;79.62
77227;BME280;66234;47.642;19.144;2024-03-23T07:28:24;99703.84;;;11.65;79.46
77227;BME280;66234;47.642;19.144;2024-03-23T07:31:26;99698.41;;;11.83;78.62
77227;BME280;66234;47.642;19.144;2024-03-23T07:34:27;99682.16;;;11.96;78.08
77227;BME280;66234;47.642;19.144;2024-03-23T07:37:29;99686.13;;;12.05;77.63
77227;BME280;66234;47.642;19.144;2024-03-23T07:40:31;99666.00;;;12.14;77.53
77227;BME280;66234;47.642;19.144;2024-03-23T07:43:34;99655.28;;;12.14;77.43
77227;BME280;66234;47.642;19.144;2024-03-23T07:46:36;99656.22;;;12.31;77.46
77227;BME280;66234;47.642;19.144;2024-03-23T07:49:37;99660.06;;;12.35;77.00
77227;BME280;66234;47.642;19.144;2024-03-23T07:52:39;99658.06;;;12.53;76.84
77227;BME280;66234;47.642;19.144;2024-03-23T07:55:40;99662.97;;;12.56;76.06
77227;BME280;66234;47.642;19.144;2024-03-23T07:58:42;99669.84;;;12.52;76.64
77227;BME280;66234;47.642;19.144;2024-03-23T08:01:43;99670.66;;;12.64;76.41
77227;BME280;66234;47.642;19.144;2024-03-23T08:04:45;99661.22;;;12.85;75.06
77227;BME280;66234;47.642;19.144;2024-03-23T08:07:46;99657.66;;;13.19;74.13
77227;BME280;66234;47.642;19.144;2024-03-23T08:10:51;99650.72;;;13.35;74.19
77227;BME280;66234;47.642;19.144;2024-03-23T08:13:53;99659.19;;;13.43;72.64
77227;BME280;66234;47.642;19.144;2024-03-23T08:16:55;99651.38;;;13.42;73.01
77227;BME280;66234;47.642;19.144;2024-03-23T08:19:56;99641.59;;;13.36;72.21
77227;BME280;66234;47.642;19.144;2024-03-23T08:22:58;99639.06;;;13.57;71.48
77227;BME280;66234;47.642;19.144;2024-03-23T08:26:04;99635.47;;;13.52;71.11
77227;BME280;66234;47.642;19.144;2024-03-23T08:29:06;99636.75;;;13.49;71.18
77227;BME280;66234;47.642;19.144;2024-03-23T08:32:07;99635.75;;;13.67;70.92
77227;BME280;66234;47.642;19.144;2024-03-23T08:35:09;99632.56;;;13.86;70.40
77227;BME280;66234;47.642;19.144;2024-03-23T08:38:10;99628.53;;;14.00;69.47
77227;BME280;66234;47.642;19.144;2024-03-23T08:41:12;99633.81;;;14.12;69.30
77227;BME280;66234;47.642;19.144;2024-03-23T08:44:13;99618.28;;;14.14;69.42
77227;BME280;66234;47.642;19.144;2024-03-23T08:47:16;99620.53;;;14.05;69.36
77227;BME280;66234;47.642;19.144;2024-03-23T08:50:17;99613.53;;;14.21;69.30
77227;BME280;66234;47.642;19.144;2024-03-23T08:53:19;99620.69;;;14.48;68.51
77227;BME280;66234;47.642;19.144;2024-03-23T08:56:20;99609.28;;;14.58;68.32
77227;BME280;66234;47.642;19.144;2024-03-23T08:59:22;99613.91;;;14.84;68.08
77227;BME280;66234;47.642;19.144;2024-03-23T09:02:25;99601.03;;;14.86;66.79
77227;BME280;66234;47.642;19.144;2024-03-23T09:05:26;99601.03;;;14.86;66.43
77227;BME280;66234;47.642;19.144;2024-03-23T09:08:29;99599.88;;;14.82;66.43
77227;BME280;66234;47.642;19.144;2024-03-23T09:11:30;99585.13;;;15.06;65.98
77227;BME280;66234;47.642;19.144;2024-03-23T09:14:33;99577.28;;;15.05;65.45
77227;BME280;66234;47.642;19.144;2024-03-23T09:17:35;99570.50;;;15.45;64.79
77227;BME280;66234;47.642;19.144;2024-03-23T09:20:36;99572.44;;;15.50;63.87
77227;BME280;66234;47.642;19.144;2024-03-23T09:23:38;99568.94;;;15.81;63.11
77227;BME280;66234;47.642;19.144;2024-03-23T09:26:39;99558.53;;;15.94;63.29
77227;BME280;66234;47.642;19.144;2024-03-23T09:29:41;99564.47;;;15.65;62.86
77227;BME280;66234;47.642;19.144;2024-03-23T09:32:43;99557.91;;;15.82;62.92
77227;BME280;66234;47.642;19.144;2024-03-23T09:35:46;99554.84;;;16.05;62.58
77227;BME280;66234;47.642;19.144;2024-03-23T09:38:50;99539.03;;;16.24;61.77
77227;BME280;66234;47.642;19.144;2024-03-23T09:41:56;99537.72;;;16.31;62.00
77227;BME280;66234;47.642;19.144;2024-03-23T09:44:59;99531.88;;;16.44;61.02
77227;BME280;66234;47.642;19.144;2024-03-23T09:48:02;99531.59;;;17.03;60.20
77227;BME280;66234;47.642;19.144;2024-03-23T09:51:03;99523.22;;;17.14;59.55
77227;BME280;66234;47.642;19.144;2024-03-23T09:54:06;99526.75;;;17.20;59.57
77227;BME280;66234;47.642;19.144;2024-03-23T09:57:08;99525.13;;;17.14;59.51
77227;BME280;66234;47.642;19.144;2024-03-23T10:00:10;99516.00;;;17.40;58.64
77227;BME280;66234;47.642;19.144;2024-03-23T10:03:13;99509.00;;;17.49;58.88
77227;BME280;66234;47.642;19.144;2024-03-23T10:06:21;99504.13;;;17.66;57.68
77227;BME280;66234;47.642;19.144;2024-03-23T10:09:25;99491.69;;;17.55;57.71
77227;BME280;66234;47.642;19.144;2024-03-23T10:12:27;99481.94;;;17.89;57.11
77227;BME280;66234;47.642;19.144;2024-03-23T10:15:28;99479.22;;;17.84;57.35
77227;BME280;66234;47.642;19.144;2024-03-23T10:18:30;99473.28;;;18.02;56.80
77227;BME280;66234;47.642;19.144;2024-03-23T10:21:33;99467.06;;;17.86;56.94
77227;BME280;66234;47.642;19.144;2024-03-23T10:24:35;99461.53;;;18.32;56.17
77227;BME280;66234;47.642;19.144;2024-03-23T10:27:36;99457.41;;;18.54;56.20
77227;BME280;66234;47.642;19.144;2024-03-23T10:30:38;99453.50;;;18.75;55.01
77227;BME280;66234;47.642;19.144;2024-03-23T10:33:45;99453.00;;;18.73;54.37
77227;BME280;66234;47.642;19.144;2024-03-23T10:36:47;99453.66;;;18.94;53.39
77227;BME280;66234;47.642;19.144;2024-03-23T10:39:48;99438.34;;;18.74;53.78
77227;BME280;66234;47.642;19.144;2024-03-23T10:42:57;99436.69;;;18.78;53.75
77227;BME280;66234;47.642;19.144;2024-03-23T10:45:59;99426.28;;;19.39;52.69
77227;BME280;66234;47.642;19.144;2024-03-23T10:49:00;99425.03;;;19.21;52.37
77227;BME280;66234;47.642;19.144;2024-03-23T10:52:03;99416.13;;;19.49;50.19
77227;BME280;66234;47.642;19.144;2024-03-23T10:55:06;99415.25;;;19.25;48.32
77227;BME280;66234;47.642;19.144;2024-03-23T10:58:08;99399.72;;;19.36;48.70
77227;BME280;66234;47.642;19.144;2024-03-23T11:01:14;99416.38;;;19.53;48.38
77227;BME280;66234;47.642;19.144;2024-03-23T11:04:38;99399.34;;;19.76;48.16
77227;BME280;66234;47.642;19.144;2024-03-23T11:07:49;99383.47;;;19.88;46.40
77227;BME280;66234;47.642;19.144;2024-03-23T11:10:51;99377.50;;;20.10;46.59
77227;BME280;66234;47.642;19.144;2024-03-23T11:13:53;99372.59;;;20.17;45.07
77227;BME280;66234;47.642;19.144;2024-03-23T11:17:10;99373.25;;;20.27;44.71
77227;BME280;66234;47.642;19.144;2024-03-23T11:20:12;99366.06;;;20.18;44.75
77227;BME280;66234;47.642;19.144;2024-03-23T11:23:29;99363.22;;;20.28;44.29
77227;BME280;66234;47.642;19.144;2024-03-23T11:26:30;99345.84;;;20.47;43.48
77227;BME280;66234;47.642;19.144;2024-03-23T11:29:32;99347.53;;;20.62;43.24
77227;BME280;66234;47.642;19.144;2024-03-23T11:32:35;99345.41;;;20.77;43.19
77227;BME280;66234;47.642;19.144;2024-03-23T11:35:38;99338.81;;;20.46;44.21
77227;BME280;66234;47.642;19.144;2024-03-23T11:38:41;99326.81;;;20.47;42.40
77227;BME280;66234;47.642;19.144;2024-03-23T11:44:49;99317.16;;;20.92;41.23
77227;BME280;66234;47.642;19.144;2024-03-23T11:48:16;99311.16;;;20.76;41.22
77227;BME280;66234;47.642;19.144;2024-03-23T11:51:21;99312.41;;;20.84;41.52
77227;BME280;66234;47.642;19.144;2024-03-23T11:54:26;99304.66;;;20.59;41.60
77227;BME280;66234;47.642;19.144;2024-03-23T11:57:28;99296.22;;;20.60;42.13
77227;BME280;66234;47.642;19.144;2024-03-23T12:00:29;99286.78;;;20.71;42.54
77227;BME280;66234;47.642;19.144;2024-03-23T12:03:31;99282.72;;;20.87;42.79
77227;BME280;66234;47.642;19.144;2024-03-23T12:06:34;99278.03;;;20.93;41.74
77227;BME280;66234;47.642;19.144;2024-03-23T12:09:36;99271.69;;;20.65;41.72
77227;BME280;66234;47.642;19.144;2024-03-23T12:12:38;99267.28;;;20.69;41.31
77227;BME280;66234;47.642;19.144;2024-03-23T12:15:39;99258.41;;;20.45;40.71
77227;BME280;66234;47.642;19.144;2024-03-23T12:18:42;99252.94;;;20.32;40.91
77227;BME280;66234;47.642;19.144;2024-03-23T12:21:44;99247.50;;;20.13;41.28
77227;BME280;66234;47.642;19.144;2024-03-23T12:24:46;99253.34;;;20.02;41.56
77227;BME280;66234;47.642;19.144;2024-03-23T12:27:47;99237.78;;;20.07;41.18
77227;BME280;66234;47.642;19.144;2024-03-23T12:30:49;99235.78;;;20.13;41.41
77227;BME280;66234;47.642;19.144;2024-03-23T12:33:50;99231.47;;;19.93;41.94
77227;BME280;66234;47.642;19.144;2024-03-23T12:36:53;99221.13;;;19.95;42.62
77227;BME280;66234;47.642;19.144;2024-03-23T12:39:55;99227.88;;;19.79;43.44
77227;BME280;66234;47.642;19.144;2024-03-23T12:42:57;99223.53;;;19.78;43.25
77227;BME280;66234;47.642;19.144;2024-03-23T12:45:58;99216.69;;;19.62;43.92
77227;BME280;66234;47.642;19.144;2024-03-23T12:49:00;99216.53;;;19.53;43.67
77227;BME280;66234;47.642;19.144;2024-03-23T12:52:02;99211.47;;;19.47;43.67
77227;BME280;66234;47.642;19.144;2024-03-23T12:55:06;99205.81;;;19.43;43.65
77227;BME280;66234;47.642;19.144;2024-03-23T12:58:08;99203.97;;;19.39;43.65
77227;BME280;66234;47.642;19.144;2024-03-23T13:01:09;99200.69;;;19.42;43.50
77227;BME280;66234;47.642;19.144;2024-03-23T13:04:11;99192.53;;;19.42;43.11
77227;BME280;66234;47.642;19.144;2024-03-23T13:07:13;99195.00;;;19.38;42.63
77227;BME280;66234;47.642;19.144;2024-03-23T13:10:14;99187.06;;;19.47;42.84
77227;BME280;66234;47.642;19.144;2024-03-23T13:13:17;99182.91;;;19.54;42.65
77227;BME280;66234;47.642;19.144;2024-03-23T13:16:18;99175.94;;;19.48;42.67
77227;BME280;66234;47.642;19.144;2024-03-23T13:19:20;99174.38;;;19.42;42.68
77227;BME280;66234;47.642;19.144;2024-03-23T13:22:22;99171.97;;;19.41;42.87
77227;BME280;66234;47.642;19.144;2024-03-23T13:25:24;99172.59;;;19.33;42.31
77227;BME280;66234;47.642;19.144;2024-03-23T13:28:27;99166.66;;;19.31;42.98
77227;BME280;66234;47.642;19.144;2024-03-23T13:31:28;99167.50;;;19.26;43.00
77227;BME280;66234;47.642;19.144;2024-03-23T13:34:30;99160.75;;;19.24;42.79
77227;BME280;66234;47.642;19.144;2024-03-23T13:37:32;99158.22;;;19.32;42.87
77227;BME280;66234;47.642;19.144;2024-03-23T13:40:33;99150.69;;;19.24;42.51
77227;BME280;66234;47.642;19.144;2024-03-23T13:43:35;99151.53;;;19.25;42.32
77227;BME280;66234;47.642;19.144;2024-03-23T13:46:38;99157.22;;;19.28;42.85
77227;BME280;66234;47.642;19.144;2024-03-23T13:49:39;99145.38;;;19.19;42.23
77227;BME280;66234;47.642;19.144;2024-03-23T13:52:41;99139.47;;;19.12;42.65
77227;BME280;66234;47.642;19.144;2024-03-23T13:55:47;99136.75;;;19.12;42.50
77227;BME280;66234;47.642;19.144;2024-03-23T13:58:51;99133.19;;;19.17;42.20
77227;BME280;66234;47.642;19.144;2024-03-23T14:01:53;99120.00;;;19.10;41.93
77227;BME280;66234;47.642;19.144;2024-03-23T14:04:54;99129.22;;;19.09;41.92
77227;BME280;66234;47.642;19.144;2024-03-23T14:07:56;99126.34;;;19.01;41.88
77227;BME280;66234;47.642;19.144;2024-03-23T14:10:58;99124.22;;;18.98;42.39
77227;BME280;66234;47.642;19.144;2024-03-23T14:13:59;99118.03;;;18.92;42.02
77227;BME280;66234;47.642;19.144;2024-03-23T14:17:01;99112.84;;;18.96;41.94
77227;BME280;66234;47.642;19.144;2024-03-23T14:20:02;99111.25;;;18.95;42.04
77227;BME280;66234;47.642;19.144;2024-03-23T14:23:07;99109.63;;;18.94;42.05
77227;BME280;66234;47.642;19.144;2024-03-23T14:26:09;99105.38;;;18.88;42.50
77227;BME280;66234;47.642;19.144;2024-03-23T14:29:12;99102.69;;;18.83;42.75
77227;BME280;66234;47.642;19.144;2024-03-23T14:32:14;99096.78;;;18.81;42.76
77227;BME280;66234;47.642;19.144;2024-03-23T14:35:16;99087.31;;;18.78;42.87
77227;BME280;66234;47.642;19.144;2024-03-23T14:38:17;99091.13;;;18.77;42.91
77227;BME280;66234;47.642;19.144;2024-03-23T14:41:19;99080.63;;;18.71;42.63
77227;BME280;66234;47.642;19.144;2024-03-23T14:44:21;99087.16;;;18.70;43.08
77227;BME280;66234;47.642;19.144;2024-03-23T14:47:23;99087.16;;;18.70;43.27
77227;BME280;66234;47.642;19.144;2024-03-23T14:50:25;99085.53;;;18.69;43.08
77227;BME280;66234;47.642;19.144;2024-03-23T14:53:26;99090.94;;;18.69;43.57
77227;BME280;66234;47.642;19.144;2024-03-23T14:56:31;99094.19;;;18.71;43.48
77227;BME280;66234;47.642;19.144;2024-03-23T14:59:33;99087.94;;;18.70;43.59
77227;BME280;66234;47.642;19.144;2024-03-23T15:02:34;99087.44;;;18.68;43.54
77227;BME280;66234;47.642;19.144;2024-03-23T15:05:36;99090.94;;;18.69;43.78
77227;BME280;66234;47.642;19.144;2024-03-23T15:08:38;99080.19;;;18.64;43.22
77227;BME280;66234;47.642;19.144;2024-03-23T15:11:41;99085.53;;;18.69;43.31
77227;BME280;66234;47.642;19.144;2024-03-23T15:14:43;99086.53;;;18.78;43.01
77227;BME280;66234;47.642;19.144;2024-03-23T15:17:45;99086.53;;;18.78;43.02
77227;BME280;66234;47.642;19.144;2024-03-23T15:20:53;99078.75;;;18.71;43.14
77227;BME280;66234;47.642;19.144;2024-03-23T15:23:55;99077.47;;;18.64;43.39
77227;BME280;66234;47.642;19.144;2024-03-23T15:26:57;99078.56;;;18.63;43.98
77227;BME280;66234;47.642;19.144;2024-03-23T15:29:58;99084.06;;;18.58;43.83
77227;BME280;66234;47.642;19.144;2024-03-23T15:33:00;99082.47;;;18.52;44.19
77227;BME280;66234;47.642;19.144;2024-03-23T15:36:03;99082.25;;;18.48;44.59
77227;BME280;66234;47.642;19.144;2024-03-23T15:39:05;99075.78;;;18.44;44.44
77227;BME280;66234;47.642;19.144;2024-03-23T15:42:08;99073.94;;;18.40;44.76
77227;BME280;66234;47.642;19.144;2024-03-23T15:45:09;99086.72;;;18.29;45.37
77227;BME280;66234;47.642;19.144;2024-03-23T15:48:11;99084.63;;;18.21;45.69
77227;BME280;66234;47.642;19.144;2024-03-23T15:51:12;99078.47;;;18.16;45.39
77227;BME280;66234;47.642;19.144;2024-03-23T15:54:14;99084.69;;;18.16;45.22
77227;BME280;66234;47.642;19.144;2024-03-23T15:57:15;99084.94;;;18.15;45.07
77227;BME280;66234;47.642;19.144;2024-03-23T16:00:17;99084.13;;;18.19;44.99
77227;BME280;66234;47.642;19.144;2024-03-23T16:03:19;99086.03;;;18.19;45.20
77227;BME280;66234;47.642;19.144;2024-03-23T16:06:20;99099.00;;;18.17;45.00
77227;BME280;66234;47.642;19.144;2024-03-23T16:09:22;99080.38;;;18.15;45.15
77227;BME280;66234;47.642;19.144;2024-03-23T16:12:24;99086.06;;;18.14;44.80
77227;BME280;66234;47.642;19.144;2024-03-23T16:15:26;99083.59;;;18.17;44.38
77227;BME280;66234;47.642;19.144;2024-03-23T16:18:27;99083.38;;;18.08;45.01
77227;BME280;66234;47.642;19.144;2024-03-23T16:21:29;99089.72;;;17.99;45.01
77227;BME280;66234;47.642;19.144;2024-03-23T16:24:30;99078.97;;;17.89;45.51
77227;BME280;66234;47.642;19.144;2024-03-23T16:27:32;99075.53;;;17.78;45.71
77227;BME280;66234;47.642;19.144;2024-03-23T16:30:33;99088.06;;;17.64;46.00
77227;BME280;66234;47.642;19.144;2024-03-23T16:33:36;99081.94;;;17.54;46.36
77227;BME280;66234;47.642;19.144;2024-03-23T16:36:38;99070.59;;;17.42;46.54
77227;BME280;66234;47.642;19.144;2024-03-23T16:39:40;99070.69;;;17.32;46.78
77227;BME280;66234;47.642;19.144;2024-03-23T16:42:41;99068.84;;;17.22;47.00
77227;BME280;66234;47.642;19.144;2024-03-23T16:45:51;99067.22;;;17.26;46.79
77227;BME280;66234;47.642;19.144;2024-03-23T16:48:52;99061.28;;;17.19;46.88
77227;BME280;66234;47.642;19.144;2024-03-23T16:51:54;99064.81;;;17.15;47.28